Weather at Nursultan Nazarbayev International Airport

Public forecast

Using degrees Celsius for public forecast. Weather courtesy of forecast.io.

Current aviation weather report (METAR) for Nursultan Nazarbayev International Airport

2024/02/28 12:30 (retrieved 38 minutes ago)

UACC 281230Z 24004MPS CAVOK M07/M11 Q1034 NOSIG RMK QFE743/0991

Aviation forecast (TAF) for Nursultan Nazarbayev International Airport

2024/02/28 12:21 (retrieved 47 minutes ago)

TAF UACC 281100Z 2812/2912 23003MPS 9999 SCT020 BKN040 TXM05/2910Z TNM16/2902Z BECMG 2814/2816 3000 BR BKN007 BKN020 TEMPO 2814/2824 18003MPS 0200 FZFG VV002 TEMPO 2900/2905 VRB01MPS 0200 FZFG VV001 BECMG 2907/2909 9999 NSW SCT011 BKN020